sensor_id;sensor_type;location;lat;lon;timestamp;P1;durP1;ratioP1;P2;durP2;ratioP2
22863;SDS011;11599;49.882;8.680;2022-12-08T00:06:32;23.27;;;9.67;;
22863;SDS011;11599;49.882;8.680;2022-12-08T00:17:13;26.23;;;10.37;;
22863;SDS011;11599;49.882;8.680;2022-12-08T00:27:35;24.33;;;9.43;;
22863;SDS011;11599;49.882;8.680;2022-12-08T00:37:59;25.43;;;11.27;;
22863;SDS011;11599;49.882;8.680;2022-12-08T00:48:20;24.53;;;10.43;;
22863;SDS011;11599;49.882;8.680;2022-12-08T00:58:43;23.23;;;10.77;;
22863;SDS011;11599;49.882;8.680;2022-12-08T01:09:05;23.13;;;9.30;;
22863;SDS011;11599;49.882;8.680;2022-12-08T01:19:28;20.30;;;9.03;;
22863;SDS011;11599;49.882;8.680;2022-12-08T01:29:50;21.57;;;9.53;;
22863;SDS011;11599;49.882;8.680;2022-12-08T01:40:13;20.20;;;9.20;;
22863;SDS011;11599;49.882;8.680;2022-12-08T01:50:34;22.83;;;9.27;;
22863;SDS011;11599;49.882;8.680;2022-12-08T02:01:00;23.53;;;9.73;;
22863;SDS011;11599;49.882;8.680;2022-12-08T02:11:22;23.80;;;9.90;;
22863;SDS011;11599;49.882;8.680;2022-12-08T02:21:46;24.27;;;9.17;;
22863;SDS011;11599;49.882;8.680;2022-12-08T02:32:19;18.83;;;8.57;;
22863;SDS011;11599;49.882;8.680;2022-12-08T02:42:45;21.10;;;9.30;;
22863;SDS011;11599;49.882;8.680;2022-12-08T02:53:08;20.10;;;8.73;;
22863;SDS011;11599;49.882;8.680;2022-12-08T03:03:33;21.93;;;9.37;;
22863;SDS011;11599;49.882;8.680;2022-12-08T03:13:56;18.73;;;8.27;;
22863;SDS011;11599;49.882;8.680;2022-12-08T03:24:22;21.90;;;9.20;;
22863;SDS011;11599;49.882;8.680;2022-12-08T03:34:44;18.43;;;7.63;;
22863;SDS011;11599;49.882;8.680;2022-12-08T03:45:09;20.53;;;7.57;;
22863;SDS011;11599;49.882;8.680;2022-12-08T03:55:31;24.27;;;8.90;;
22863;SDS011;11599;49.882;8.680;2022-12-08T04:05:53;20.50;;;8.73;;
22863;SDS011;11599;49.882;8.680;2022-12-08T04:16:16;25.53;;;9.20;;
22863;SDS011;11599;49.882;8.680;2022-12-08T04:26:39;20.00;;;8.10;;
22863;SDS011;11599;49.882;8.680;2022-12-08T04:37:01;20.63;;;8.97;;
22863;SDS011;11599;49.882;8.680;2022-12-08T04:47:24;18.67;;;8.07;;
22863;SDS011;11599;49.882;8.680;2022-12-08T04:57:45;19.50;;;8.73;;
22863;SDS011;11599;49.882;8.680;2022-12-08T05:08:08;22.30;;;8.27;;
22863;SDS011;11599;49.882;8.680;2022-12-08T05:18:29;18.07;;;8.33;;
22863;SDS011;11599;49.882;8.680;2022-12-08T05:28:52;24.13;;;8.53;;
22863;SDS011;11599;49.882;8.680;2022-12-08T05:39:14;16.90;;;8.03;;
22863;SDS011;11599;49.882;8.680;2022-12-08T05:49:37;20.63;;;7.50;;
22863;SDS011;11599;49.882;8.680;2022-12-08T05:59:58;18.53;;;8.13;;
22863;SDS011;11599;49.882;8.680;2022-12-08T06:10:21;17.33;;;7.50;;
22863;SDS011;11599;49.882;8.680;2022-12-08T06:20:42;19.30;;;7.87;;
22863;SDS011;11599;49.882;8.680;2022-12-08T06:31:07;19.80;;;7.60;;
22863;SDS011;11599;49.882;8.680;2022-12-08T06:41:28;17.33;;;7.43;;
22863;SDS011;11599;49.882;8.680;2022-12-08T06:51:51;19.00;;;7.77;;
22863;SDS011;11599;49.882;8.680;2022-12-08T07:02:13;16.70;;;7.20;;
22863;SDS011;11599;49.882;8.680;2022-12-08T07:12:36;17.20;;;7.37;;
22863;SDS011;11599;49.882;8.680;2022-12-08T07:22:57;20.10;;;7.87;;
22863;SDS011;11599;49.882;8.680;2022-12-08T07:33:20;17.07;;;7.77;;
22863;SDS011;11599;49.882;8.680;2022-12-08T07:43:41;17.70;;;7.50;;
22863;SDS011;11599;49.882;8.680;2022-12-08T07:54:04;20.93;;;8.50;;
22863;SDS011;11599;49.882;8.680;2022-12-08T08:04:26;18.43;;;7.43;;
22863;SDS011;11599;49.882;8.680;2022-12-08T08:14:49;17.97;;;8.23;;
22863;SDS011;11599;49.882;8.680;2022-12-08T08:25:10;17.20;;;7.10;;
22863;SDS011;11599;49.882;8.680;2022-12-08T08:35:34;20.27;;;7.70;;
22863;SDS011;11599;49.882;8.680;2022-12-08T08:45:56;15.73;;;7.40;;
22863;SDS011;11599;49.882;8.680;2022-12-08T08:56:19;17.33;;;7.27;;
22863;SDS011;11599;49.882;8.680;2022-12-08T09:06:41;14.67;;;7.27;;
22863;SDS011;11599;49.882;8.680;2022-12-08T09:17:04;18.33;;;7.70;;
22863;SDS011;11599;49.882;8.680;2022-12-08T09:27:26;18.83;;;6.80;;
22863;SDS011;11599;49.882;8.680;2022-12-08T09:37:49;16.33;;;6.70;;
22863;SDS011;11599;49.882;8.680;2022-12-08T09:48:13;16.53;;;6.37;;
22863;SDS011;11599;49.882;8.680;2022-12-08T09:58:41;19.83;;;7.10;;
22863;SDS011;11599;49.882;8.680;2022-12-08T10:09:07;17.60;;;7.60;;
22863;SDS011;11599;49.882;8.680;2022-12-08T10:19:34;14.63;;;6.83;;
22863;SDS011;11599;49.882;8.680;2022-12-08T10:29:56;16.50;;;6.80;;
22863;SDS011;11599;49.882;8.680;2022-12-08T10:40:20;13.07;;;6.30;;
22863;SDS011;11599;49.882;8.680;2022-12-08T10:50:46;15.33;;;6.90;;
22863;SDS011;11599;49.882;8.680;2022-12-08T11:01:10;15.10;;;6.57;;
22863;SDS011;11599;49.882;8.680;2022-12-08T11:11:36;16.13;;;6.97;;
22863;SDS011;11599;49.882;8.680;2022-12-08T11:21:59;13.07;;;6.70;;
22863;SDS011;11599;49.882;8.680;2022-12-08T11:32:21;18.97;;;6.77;;
22863;SDS011;11599;49.882;8.680;2022-12-08T11:42:46;18.47;;;7.00;;
22863;SDS011;11599;49.882;8.680;2022-12-08T11:53:15;13.40;;;6.03;;
22863;SDS011;11599;49.882;8.680;2022-12-08T12:03:40;16.67;;;7.03;;
22863;SDS011;11599;49.882;8.680;2022-12-08T12:14:09;15.20;;;6.17;;
22863;SDS011;11599;49.882;8.680;2022-12-08T12:24:36;16.27;;;6.43;;
22863;SDS011;11599;49.882;8.680;2022-12-08T12:34:58;15.00;;;6.50;;
22863;SDS011;11599;49.882;8.680;2022-12-08T12:45:26;15.10;;;6.57;;
22863;SDS011;11599;49.882;8.680;2022-12-08T12:55:50;16.37;;;7.40;;
22863;SDS011;11599;49.882;8.680;2022-12-08T13:06:17;20.50;;;6.80;;
22863;SDS011;11599;49.882;8.680;2022-12-08T13:16:42;12.33;;;5.30;;
22863;SDS011;11599;49.882;8.680;2022-12-08T13:37:45;12.70;;;5.80;;
22863;SDS011;11599;49.882;8.680;2022-12-08T13:48:09;13.80;;;5.47;;
22863;SDS011;11599;49.882;8.680;2022-12-08T13:58:35;11.27;;;5.10;;
22863;SDS011;11599;49.882;8.680;2022-12-08T14:08:57;13.07;;;5.40;;
22863;SDS011;11599;49.882;8.680;2022-12-08T14:19:23;15.13;;;6.20;;
22863;SDS011;11599;49.882;8.680;2022-12-08T14:29:48;14.33;;;6.63;;
22863;SDS011;11599;49.882;8.680;2022-12-08T14:40:19;14.43;;;6.13;;
22863;SDS011;11599;49.882;8.680;2022-12-08T14:50:43;20.33;;;6.23;;
22863;SDS011;11599;49.882;8.680;2022-12-08T15:01:06;15.80;;;5.93;;
22863;SDS011;11599;49.882;8.680;2022-12-08T15:11:30;15.87;;;6.57;;
22863;SDS011;11599;49.882;8.680;2022-12-08T15:21:53;13.73;;;5.97;;
22863;SDS011;11599;49.882;8.680;2022-12-08T15:32:16;18.30;;;6.17;;
22863;SDS011;11599;49.882;8.680;2022-12-08T15:42:39;15.47;;;6.40;;
22863;SDS011;11599;49.882;8.680;2022-12-08T15:53:03;13.83;;;6.27;;
22863;SDS011;11599;49.882;8.680;2022-12-08T16:03:29;19.93;;;6.50;;
22863;SDS011;11599;49.882;8.680;2022-12-08T16:13:51;16.20;;;6.23;;
22863;SDS011;11599;49.882;8.680;2022-12-08T16:24:14;15.30;;;6.27;;
22863;SDS011;11599;49.882;8.680;2022-12-08T16:34:38;14.53;;;6.17;;
22863;SDS011;11599;49.882;8.680;2022-12-08T16:45:01;14.60;;;6.53;;
22863;SDS011;11599;49.882;8.680;2022-12-08T16:55:23;15.40;;;6.80;;
22863;SDS011;11599;49.882;8.680;2022-12-08T17:05:46;14.50;;;6.87;;
22863;SDS011;11599;49.882;8.680;2022-12-08T17:16:09;15.07;;;6.70;;
22863;SDS011;11599;49.882;8.680;2022-12-08T17:26:32;17.80;;;6.33;;
22863;SDS011;11599;49.882;8.680;2022-12-08T17:36:55;20.40;;;7.80;;
22863;SDS011;11599;49.882;8.680;2022-12-08T17:47:18;17.37;;;7.10;;
22863;SDS011;11599;49.882;8.680;2022-12-08T17:57:40;16.17;;;7.83;;
22863;SDS011;11599;49.882;8.680;2022-12-08T18:08:03;15.73;;;7.60;;
22863;SDS011;11599;49.882;8.680;2022-12-08T18:18:25;16.87;;;7.90;;
22863;SDS011;11599;49.882;8.680;2022-12-08T18:28:47;15.80;;;6.90;;
22863;SDS011;11599;49.882;8.680;2022-12-08T18:39:18;15.47;;;7.23;;
22863;SDS011;11599;49.882;8.680;2022-12-08T18:49:41;18.20;;;7.73;;
22863;SDS011;11599;49.882;8.680;2022-12-08T19:00:06;16.13;;;7.47;;
22863;SDS011;11599;49.882;8.680;2022-12-08T19:10:29;18.20;;;8.47;;
22863;SDS011;11599;49.882;8.680;2022-12-08T19:20:54;23.00;;;8.07;;
22863;SDS011;11599;49.882;8.680;2022-12-08T19:31:17;18.67;;;8.67;;
22863;SDS011;11599;49.882;8.680;2022-12-08T19:41:38;18.47;;;8.33;;
22863;SDS011;11599;49.882;8.680;2022-12-08T19:52:19;20.93;;;9.23;;
22863;SDS011;11599;49.882;8.680;2022-12-08T20:02:43;23.27;;;9.40;;
22863;SDS011;11599;49.882;8.680;2022-12-08T20:13:06;23.40;;;9.73;;
22863;SDS011;11599;49.882;8.680;2022-12-08T20:23:46;21.67;;;9.50;;
22863;SDS011;11599;49.882;8.680;2022-12-08T20:34:13;20.77;;;9.93;;
22863;SDS011;11599;49.882;8.680;2022-12-08T20:44:35;21.63;;;9.70;;
22863;SDS011;11599;49.882;8.680;2022-12-08T20:55:04;21.67;;;9.23;;
22863;SDS011;11599;49.882;8.680;2022-12-08T21:05:26;24.47;;;9.83;;
22863;SDS011;11599;49.882;8.680;2022-12-08T21:15:49;22.10;;;9.93;;
22863;SDS011;11599;49.882;8.680;2022-12-08T21:26:11;21.60;;;9.80;;
22863;SDS011;11599;49.882;8.680;2022-12-08T21:36:35;23.10;;;10.37;;
22863;SDS011;11599;49.882;8.680;2022-12-08T21:46:57;25.80;;;9.33;;
22863;SDS011;11599;49.882;8.680;2022-12-08T21:57:19;25.00;;;9.07;;
22863;SDS011;11599;49.882;8.680;2022-12-08T22:07:41;26.87;;;9.80;;
22863;SDS011;11599;49.882;8.680;2022-12-08T22:18:04;21.30;;;9.10;;
22863;SDS011;11599;49.882;8.680;2022-12-08T22:28:26;25.43;;;9.77;;
22863;SDS011;11599;49.882;8.680;2022-12-08T22:38:49;18.43;;;8.37;;
22863;SDS011;11599;49.882;8.680;2022-12-08T22:49:11;21.90;;;9.03;;
22863;SDS011;11599;49.882;8.680;2022-12-08T22:59:34;22.40;;;9.23;;
22863;SDS011;11599;49.882;8.680;2022-12-08T23:09:56;20.10;;;8.07;;
22863;SDS011;11599;49.882;8.680;2022-12-08T23:20:19;23.20;;;9.20;;
22863;SDS011;11599;49.882;8.680;2022-12-08T23:30:40;21.70;;;8.53;;
22863;SDS011;11599;49.882;8.680;2022-12-08T23:41:04;20.00;;;8.53;;
22863;SDS011;11599;49.882;8.680;2022-12-08T23:51:25;19.30;;;8.00;;
